createdAt,value
2018-02-16T00:00:50.864Z,0.90
2018-02-16T00:03:19.992Z,0.90
2018-02-16T00:05:50.065Z,0.90
2018-02-16T00:08:17.832Z,0.90
2018-02-16T00:10:45.499Z,0.90
2018-02-16T00:13:14.727Z,0.90
2018-02-16T00:15:43.118Z,0.90
2018-02-16T00:18:11.530Z,0.90
2018-02-16T00:20:39.527Z,0.90
2018-02-16T00:23:07.161Z,0.90
2018-02-16T00:25:34.791Z,0.90
2018-02-16T00:28:02.461Z,0.90
2018-02-16T00:30:30.068Z,0.90
2018-02-16T00:32:58.645Z,1.00
2018-02-16T00:35:26.415Z,0.90
2018-02-16T00:37:54.550Z,1.00
2018-02-16T00:40:22.190Z,1.00
2018-02-16T00:42:49.874Z,1.00
2018-02-16T00:45:17.537Z,0.90
2018-02-16T00:47:46.505Z,0.90
2018-02-16T00:50:14.986Z,0.90
2018-02-16T00:52:43.448Z,1.00
2018-02-16T00:55:11.877Z,0.90
2018-02-16T00:57:39.531Z,1.00
2018-02-16T01:00:07.823Z,0.90
2018-02-16T01:02:36.109Z,0.90
2018-02-16T01:05:05.171Z,0.90
2018-02-16T01:07:34.023Z,0.90
2018-02-16T01:10:04.086Z,0.90
2018-02-16T01:12:32.193Z,0.90
2018-02-16T01:14:59.807Z,0.90
2018-02-16T01:17:27.827Z,0.90
2018-02-16T01:19:56.985Z,0.90
2018-02-16T01:22:30.606Z,0.90
2018-02-16T01:24:58.305Z,0.90
2018-02-16T01:27:26.269Z,0.90
2018-02-16T01:29:53.888Z,0.90
2018-02-16T01:32:23.948Z,0.90
2018-02-16T01:34:51.892Z,0.90
2018-02-16T01:37:20.408Z,0.90
2018-02-16T01:39:48.083Z,0.90
2018-02-16T01:42:16.973Z,0.90
2018-02-16T01:44:45.813Z,0.90
2018-02-16T01:47:15.564Z,0.90
2018-02-16T01:49:54.997Z,0.90
2018-02-16T01:52:22.611Z,0.90
2018-02-16T01:54:50.827Z,0.90
2018-02-16T01:57:18.828Z,1.00
2018-02-16T01:59:46.460Z,1.00
2018-02-16T02:02:14.105Z,0.90
2018-02-16T02:04:41.758Z,1.00
2018-02-16T02:07:09.442Z,0.90
2018-02-16T02:09:38.383Z,0.90
2018-02-16T02:12:05.998Z,0.90
2018-02-16T02:14:34.147Z,0.90
2018-02-16T02:17:01.789Z,0.90
2018-02-16T02:19:29.400Z,0.90
2018-02-16T02:21:57.016Z,0.90
2018-02-16T02:24:24.677Z,0.90
2018-02-16T02:26:52.853Z,0.90
2018-02-16T02:29:21.363Z,0.90
2018-02-16T02:31:49.013Z,0.90
2018-02-16T02:34:17.629Z,1.00
2018-02-16T02:36:45.241Z,1.00
2018-02-16T02:39:12.862Z,1.00
2018-02-16T02:41:40.472Z,1.00
2018-02-16T02:44:08.106Z,1.00
2018-02-16T02:46:35.743Z,1.00
2018-02-16T02:49:04.513Z,1.10
2018-02-16T02:51:32.174Z,1.10
2018-02-16T02:53:59.968Z,1.00
2018-02-16T02:56:27.616Z,1.00
2018-02-16T02:58:55.991Z,0.90
2018-02-16T03:01:23.597Z,0.90
2018-02-16T03:03:52.561Z,0.90
2018-02-16T03:06:20.208Z,0.90
2018-02-16T03:08:48.652Z,0.90
2018-02-16T03:11:17.070Z,0.90
2018-02-16T03:13:44.736Z,0.90
2018-02-16T03:16:12.903Z,0.90
2018-02-16T03:18:40.656Z,1.00
2018-02-16T03:21:08.333Z,1.00
2018-02-16T03:23:36.095Z,1.00
2018-02-16T03:26:03.722Z,1.00
2018-02-16T03:28:32.133Z,1.00
2018-02-16T03:30:59.795Z,0.90
2018-02-16T03:33:27.428Z,0.90
2018-02-16T03:35:55.933Z,1.00
2018-02-16T03:38:23.551Z,1.00
2018-02-16T03:40:52.397Z,1.00
2018-02-16T03:43:20.142Z,1.10
2018-02-16T03:45:47.810Z,1.10
2018-02-16T03:48:15.767Z,1.10
2018-02-16T03:50:43.499Z,1.10
2018-02-16T03:53:11.981Z,1.10
2018-02-16T03:55:40.344Z,1.20
2018-02-16T03:58:08.071Z,1.20
2018-02-16T04:00:35.732Z,1.10
2018-02-16T04:03:03.324Z,1.10
2018-02-16T04:05:30.958Z,1.20
2018-02-16T04:07:58.560Z,1.20
2018-02-16T04:10:26.227Z,1.20
2018-02-16T04:12:54.713Z,1.30
2018-02-16T04:15:23.377Z,1.30
2018-02-16T04:17:51.068Z,1.20
2018-02-16T04:20:18.738Z,1.20
2018-02-16T04:22:46.391Z,1.20
2018-02-16T04:25:14.086Z,1.20
2018-02-16T04:27:41.708Z,1.30
2018-02-16T04:30:10.115Z,1.20
2018-02-16T04:32:37.740Z,1.20
2018-02-16T04:35:08.027Z,1.20
2018-02-16T04:37:35.659Z,1.20
2018-02-16T04:40:03.288Z,1.20
2018-02-16T04:42:31.700Z,1.20
2018-02-16T04:44:59.293Z,1.20
2018-02-16T04:47:27.124Z,1.20
2018-02-16T04:49:54.785Z,1.30
2018-02-16T04:52:22.437Z,1.20
2018-02-16T04:54:50.045Z,1.20
2018-02-16T04:57:17.700Z,1.20
2018-02-16T04:59:45.316Z,1.20
2018-02-16T05:02:12.990Z,1.20
2018-02-16T05:04:40.646Z,1.20
2018-02-16T05:07:08.247Z,1.20
2018-02-16T05:09:35.962Z,1.20
2018-02-16T05:12:05.007Z,1.20
2018-02-16T05:14:32.770Z,1.20
2018-02-16T05:17:00.461Z,1.20
2018-02-16T05:19:28.895Z,1.20
2018-02-16T05:21:56.579Z,1.20
2018-02-16T05:24:24.349Z,1.30
2018-02-16T05:26:52.061Z,1.30
2018-02-16T05:29:19.670Z,1.30
2018-02-16T05:31:47.379Z,1.30
2018-02-16T05:34:16.127Z,1.30
2018-02-16T05:36:44.546Z,1.40
2018-02-16T05:39:12.199Z,1.40
2018-02-16T05:41:39.815Z,1.40
2018-02-16T05:44:07.436Z,1.40
2018-02-16T05:46:35.080Z,1.40
2018-02-16T05:49:02.706Z,1.40
2018-02-16T05:51:30.314Z,1.40
2018-02-16T05:53:57.942Z,1.40
2018-02-16T05:56:26.325Z,1.40
2018-02-16T05:58:54.731Z,1.40
2018-02-16T06:01:22.392Z,1.40
2018-02-16T06:03:51.780Z,1.40
2018-02-16T06:06:19.426Z,1.50
2018-02-16T06:08:48.841Z,1.50
2018-02-16T06:11:16.407Z,1.50
2018-02-16T06:13:44.109Z,1.50
2018-02-16T06:16:11.732Z,1.60
2018-02-16T06:18:39.390Z,1.50
2018-02-16T06:21:06.983Z,1.60
2018-02-16T06:23:34.594Z,1.60
2018-02-16T06:26:02.240Z,1.60
2018-02-16T06:28:30.639Z,1.60
2018-02-16T06:30:59.128Z,1.70
2018-02-16T06:33:26.750Z,1.70
2018-02-16T06:35:54.382Z,1.70
2018-02-16T06:38:22.186Z,1.70
2018-02-16T06:40:50.592Z,1.70
2018-02-16T06:43:18.376Z,1.70
2018-02-16T06:45:46.592Z,1.70
2018-02-16T06:48:14.224Z,1.70
2018-02-16T06:50:41.931Z,1.70
2018-02-16T06:53:10.363Z,1.80
2018-02-16T06:55:38.319Z,1.80
2018-02-16T06:58:05.981Z,1.80
2018-02-16T07:00:33.638Z,1.80
2018-02-16T07:03:01.352Z,1.80
2018-02-16T07:05:29.021Z,1.80
2018-02-16T07:07:56.699Z,1.80
2018-02-16T07:10:25.125Z,1.90
2018-02-16T07:12:52.893Z,1.90
2018-02-16T07:15:20.567Z,1.90
2018-02-16T07:17:48.254Z,1.90
2018-02-16T07:20:15.857Z,1.90
2018-02-16T07:22:43.505Z,1.90
2018-02-16T07:25:11.910Z,1.90
2018-02-16T07:27:40.782Z,1.90
2018-02-16T07:30:08.412Z,2.00
2018-02-16T07:32:36.835Z,2.00
2018-02-16T07:35:04.491Z,2.00
2018-02-16T07:37:32.153Z,2.00
2018-02-16T07:40:01.030Z,2.00
2018-02-16T07:42:28.644Z,2.00
2018-02-16T07:44:56.245Z,2.10
2018-02-16T07:47:24.021Z,2.10
2018-02-16T07:49:51.625Z,2.20
2018-02-16T07:52:19.251Z,2.20
2018-02-16T07:54:46.838Z,2.20
2018-02-16T07:57:14.524Z,2.30
2018-02-16T07:59:42.165Z,2.30
2018-02-16T08:02:09.812Z,2.30
2018-02-16T08:04:37.445Z,2.30
2018-02-16T08:07:05.073Z,2.50
2018-02-16T08:09:33.469Z,2.60
2018-02-16T08:12:01.116Z,2.60
2018-02-16T08:14:29.539Z,2.70
2018-02-16T08:16:57.208Z,2.70
2018-02-16T08:19:25.596Z,2.80
2018-02-16T08:21:53.224Z,2.80
2018-02-16T08:24:20.961Z,2.90
2018-02-16T08:26:49.368Z,2.90
2018-02-16T08:29:17.009Z,2.90
2018-02-16T08:31:44.693Z,2.90
2018-02-16T08:36:46.602Z,3.00
2018-02-16T08:39:14.283Z,3.10
2018-02-16T08:41:41.953Z,3.10
2018-02-16T08:44:10.321Z,3.20
2018-02-16T08:46:37.998Z,3.20
2018-02-16T08:49:06.368Z,3.30
2018-02-16T08:51:34.007Z,3.30
2018-02-16T08:54:01.631Z,3.40
2018-02-16T08:56:29.282Z,3.40
2018-02-16T08:58:56.902Z,3.50
2018-02-16T09:01:24.617Z,3.60
2018-02-16T09:03:52.238Z,3.70
2018-02-16T09:06:20.716Z,4.00
2018-02-16T09:08:49.121Z,4.00
2018-02-16T09:11:18.169Z,4.00
2018-02-16T09:13:45.855Z,4.10
2018-02-16T09:16:14.175Z,4.40
2018-02-16T09:18:41.831Z,4.80
2018-02-16T09:21:09.459Z,5.00
2018-02-16T09:23:37.922Z,4.90
2018-02-16T09:26:05.631Z,4.90
2018-02-16T09:28:33.283Z,5.00
2018-02-16T09:31:00.982Z,5.20
2018-02-16T09:33:28.647Z,5.20
2018-02-16T09:35:59.047Z,5.10
2018-02-16T09:38:26.686Z,5.30
2018-02-16T09:40:55.134Z,5.80
2018-02-16T09:43:22.846Z,5.80
2018-02-16T09:45:51.371Z,6.00
2018-02-16T09:48:19.064Z,6.10
2018-02-16T09:50:47.453Z,6.30
2018-02-16T09:53:15.086Z,6.30
2018-02-16T09:55:43.525Z,6.40
2018-02-16T09:58:11.194Z,6.30
2018-02-16T10:00:39.701Z,6.50
2018-02-16T10:03:08.104Z,6.50
2018-02-16T10:05:35.734Z,6.50
2018-02-16T10:08:04.197Z,6.00
2018-02-16T10:10:31.844Z,6.00
2018-02-16T10:12:59.546Z,6.20
2018-02-16T10:15:27.201Z,6.00
2018-02-16T10:17:55.598Z,6.30
2018-02-16T10:20:23.257Z,6.20
2018-02-16T10:22:50.861Z,6.10
2018-02-16T10:25:18.549Z,5.90
2018-02-16T10:27:46.951Z,5.80
2018-02-16T10:30:15.395Z,5.80
2018-02-16T10:32:43.049Z,5.80
2018-02-16T10:35:10.673Z,5.80
2018-02-16T10:37:38.336Z,5.70
2018-02-16T10:40:06.452Z,5.70
2018-02-16T10:42:34.085Z,5.60
2018-02-16T10:45:01.728Z,5.50
2018-02-16T10:47:29.388Z,5.40
2018-02-16T10:49:57.672Z,5.30
2018-02-16T10:52:25.335Z,5.40
2018-02-16T10:54:52.988Z,5.30
2018-02-16T10:57:21.650Z,5.30
2018-02-16T10:59:50.026Z,5.40
2018-02-16T11:02:23.892Z,5.60
2018-02-16T11:04:57.317Z,5.50
2018-02-16T11:07:31.280Z,5.60
2018-02-16T11:09:58.936Z,5.60
2018-02-16T11:12:26.737Z,5.70
2018-02-16T11:14:54.380Z,5.60
2018-02-16T11:17:22.073Z,5.50
2018-02-16T11:19:49.738Z,5.50
2018-02-16T11:22:18.129Z,5.60
2018-02-16T11:24:46.550Z,5.60
2018-02-16T11:27:14.182Z,5.60
2018-02-16T11:29:41.787Z,5.60
2018-02-16T11:32:09.457Z,5.60
2018-02-16T11:34:37.069Z,5.70
2018-02-16T11:37:04.971Z,5.60
2018-02-16T11:39:32.706Z,5.70
2018-02-16T11:42:00.346Z,5.70
2018-02-16T11:44:28.962Z,5.90
2018-02-16T11:46:56.649Z,5.90
2018-02-16T11:49:24.376Z,6.00
2018-02-16T11:51:51.968Z,6.10
2018-02-16T11:54:19.641Z,6.30
2018-02-16T11:56:47.259Z,6.40
2018-02-16T11:59:14.897Z,6.40
2018-02-16T12:01:43.269Z,6.20
2018-02-16T12:04:11.693Z,6.10
2018-02-16T12:06:39.311Z,6.10
2018-02-16T12:09:07.816Z,5.90
2018-02-16T12:11:36.244Z,5.90
2018-02-16T12:14:03.854Z,5.90
2018-02-16T12:16:32.282Z,5.80
2018-02-16T12:18:59.915Z,5.80
2018-02-16T12:21:27.622Z,5.80
2018-02-16T12:23:55.235Z,5.70
2018-02-16T12:26:22.930Z,5.70
2018-02-16T12:28:50.576Z,5.60
2018-02-16T12:31:18.274Z,5.50
2018-02-16T12:33:46.303Z,5.60
2018-02-16T12:36:14.005Z,5.50
2018-02-16T12:38:41.751Z,5.50
2018-02-16T12:41:09.351Z,5.40
2018-02-16T12:43:37.004Z,5.40
2018-02-16T12:46:05.399Z,5.50
2018-02-16T12:48:33.806Z,5.40
2018-02-16T12:51:01.562Z,5.40
2018-02-16T12:53:29.231Z,5.40
2018-02-16T12:55:56.859Z,5.40
2018-02-16T12:58:25.269Z,5.30
2018-02-16T13:00:55.448Z,5.30
2018-02-16T13:03:24.734Z,5.30
2018-02-16T13:05:52.393Z,5.20
2018-02-16T13:08:20.067Z,5.10
2018-02-16T13:10:47.704Z,5.00
2018-02-16T13:13:15.370Z,4.90
2018-02-16T13:15:42.998Z,4.90
2018-02-16T13:18:10.683Z,4.80
2018-02-16T13:20:39.228Z,4.80
2018-02-16T13:23:06.868Z,4.80
2018-02-16T13:25:35.300Z,4.80
2018-02-16T13:28:02.919Z,4.80
2018-02-16T13:30:30.740Z,4.80
2018-02-16T13:32:58.397Z,4.80
2018-02-16T13:35:26.053Z,4.80
2018-02-16T13:37:53.719Z,4.90
2018-02-16T13:40:21.436Z,4.90
2018-02-16T13:42:49.056Z,4.90
2018-02-16T13:45:16.988Z,4.90
2018-02-16T13:47:44.906Z,5.00
2018-02-16T13:50:12.679Z,5.00
2018-02-16T13:52:41.143Z,5.00
2018-02-16T13:55:08.815Z,5.00
2018-02-16T13:57:36.505Z,5.00
2018-02-16T14:00:05.257Z,5.00
2018-02-16T14:02:32.939Z,5.10
2018-02-16T14:05:00.633Z,5.20
2018-02-16T14:07:28.399Z,5.20
2018-02-16T14:09:56.023Z,5.20
2018-02-16T14:12:24.395Z,5.10
2018-02-16T14:14:52.802Z,5.20
2018-02-16T14:17:20.524Z,5.20
2018-02-16T14:19:49.034Z,5.10
2018-02-16T14:22:17.471Z,5.10
2018-02-16T14:24:45.165Z,5.10
2018-02-16T14:27:12.920Z,5.10
2018-02-16T14:29:40.687Z,5.10
2018-02-16T14:32:08.304Z,5.00
2018-02-16T14:34:35.915Z,5.00
2018-02-16T14:37:04.333Z,5.00
2018-02-16T14:39:31.952Z,5.00
2018-02-16T14:42:00.472Z,5.10
2018-02-16T14:44:28.128Z,5.10
2018-02-16T14:46:55.788Z,5.20
2018-02-16T14:49:23.560Z,5.30
2018-02-16T14:51:51.229Z,5.20
2018-02-16T14:54:18.922Z,5.10
2018-02-16T14:56:46.523Z,5.10
2018-02-16T14:59:14.270Z,5.20
2018-02-16T15:01:42.656Z,5.20
2018-02-16T15:04:11.079Z,5.20
2018-02-16T15:06:38.733Z,5.20
2018-02-16T15:09:06.422Z,5.20
2018-02-16T15:11:34.064Z,5.10
2018-02-16T15:14:01.743Z,5.10
2018-02-16T15:16:30.226Z,5.10
2018-02-16T15:18:57.946Z,5.10
2018-02-16T15:21:25.601Z,5.20
2018-02-16T15:23:54.380Z,5.10
2018-02-16T15:26:22.054Z,5.10
2018-02-16T15:28:49.728Z,5.10
2018-02-16T15:31:17.353Z,5.10
2018-02-16T15:33:45.830Z,4.90
2018-02-16T15:36:14.253Z,4.90
2018-02-16T15:38:42.002Z,4.80
2018-02-16T15:41:09.797Z,4.80
2018-02-16T15:43:37.757Z,4.80
2018-02-16T15:46:05.462Z,4.70
2018-02-16T15:48:33.884Z,4.60
2018-02-16T15:51:01.539Z,4.60
2018-02-16T15:53:29.269Z,4.50
2018-02-16T15:55:57.644Z,4.40
2018-02-16T15:58:26.104Z,4.40
2018-02-16T16:00:53.734Z,4.30
2018-02-16T16:03:21.387Z,4.40
2018-02-16T16:05:49.031Z,4.30
2018-02-16T16:08:16.916Z,4.30
2018-02-16T16:10:44.578Z,4.40
2018-02-16T16:13:12.193Z,4.30
2018-02-16T16:15:40.682Z,4.30
2018-02-16T16:18:09.134Z,4.30
2018-02-16T16:20:37.066Z,4.30
2018-02-16T16:23:05.147Z,4.20
2018-02-16T16:25:32.875Z,4.20
2018-02-16T16:28:01.304Z,4.20
2018-02-16T16:30:29.052Z,4.20
2018-02-16T16:32:56.739Z,4.20
2018-02-16T16:35:24.417Z,4.20
2018-02-16T16:37:52.889Z,4.20
2018-02-16T16:40:20.828Z,4.20
2018-02-16T16:42:48.497Z,4.20
2018-02-16T16:45:16.239Z,4.20
2018-02-16T16:47:43.934Z,4.20
2018-02-16T16:50:11.557Z,4.20
2018-02-16T16:52:39.260Z,4.10
2018-02-16T16:55:07.014Z,4.10
2018-02-16T16:57:34.625Z,4.10
2018-02-16T17:00:02.315Z,4.00
2018-02-16T17:02:30.121Z,4.00
2018-02-16T17:04:57.790Z,3.90
2018-02-16T17:07:26.410Z,3.90
2018-02-16T17:09:54.394Z,3.90
2018-02-16T17:12:22.225Z,3.90
2018-02-16T17:14:50.136Z,3.90
2018-02-16T17:17:17.793Z,3.90
2018-02-16T17:19:45.490Z,3.80
2018-02-16T17:22:13.184Z,3.80
2018-02-16T17:24:40.966Z,3.80
2018-02-16T17:27:08.724Z,3.70
2018-02-16T17:29:36.413Z,3.70
2018-02-16T17:32:04.100Z,3.70
2018-02-16T17:34:31.713Z,3.70
2018-02-16T17:36:59.380Z,3.60
2018-02-16T17:39:27.685Z,3.60
2018-02-16T17:41:55.536Z,3.70
2018-02-16T17:44:23.388Z,3.60
2018-02-16T17:46:51.048Z,3.60
2018-02-16T17:49:18.770Z,3.60
2018-02-16T17:51:47.420Z,3.60
2018-02-16T17:54:15.084Z,3.50
2018-02-16T17:56:42.806Z,3.60
2018-02-16T17:59:10.473Z,3.60
2018-02-16T18:01:38.124Z,3.50
2018-02-16T18:04:06.008Z,3.60
2018-02-16T18:06:33.667Z,3.60
2018-02-16T18:09:01.445Z,3.60
2018-02-16T18:11:29.306Z,3.60
2018-02-16T18:13:56.956Z,3.60
2018-02-16T18:16:24.576Z,3.50
2018-02-16T18:18:52.263Z,3.50
2018-02-16T18:21:20.048Z,3.50
2018-02-16T18:23:47.774Z,3.40
2018-02-16T18:26:16.199Z,3.30
2018-02-16T18:28:44.290Z,3.20
2018-02-16T18:31:11.988Z,3.20
2018-02-16T18:33:40.391Z,3.10
2018-02-16T18:36:08.452Z,3.10
2018-02-16T18:38:36.086Z,3.00
2018-02-16T18:41:04.525Z,3.00
2018-02-16T18:43:32.254Z,3.00
2018-02-16T18:46:00.654Z,2.90
2018-02-16T18:48:28.399Z,2.90
2018-02-16T18:50:56.826Z,2.80
2018-02-16T18:53:24.549Z,2.80
2018-02-16T18:55:52.250Z,2.80
2018-02-16T18:58:20.056Z,2.80
2018-02-16T19:00:47.776Z,2.90
2018-02-16T19:03:16.340Z,2.90
2018-02-16T19:05:44.069Z,2.90
2018-02-16T19:08:11.784Z,3.00
2018-02-16T19:10:39.546Z,3.00
2018-02-16T19:13:07.258Z,2.90
2018-02-16T19:15:35.741Z,2.80
2018-02-16T19:18:04.199Z,2.80
2018-02-16T19:20:31.954Z,2.80
2018-02-16T19:22:59.649Z,2.60
2018-02-16T19:25:27.325Z,2.50
2018-02-16T19:27:55.133Z,2.50
2018-02-16T19:30:22.938Z,2.50
2018-02-16T19:32:51.400Z,2.30
2018-02-16T19:35:19.887Z,2.40
2018-02-16T19:37:48.331Z,2.40
2018-02-16T19:40:15.992Z,2.40
2018-02-16T19:42:43.637Z,2.40
2018-02-16T19:45:11.480Z,2.40
2018-02-16T19:47:39.168Z,2.40
2018-02-16T19:50:06.921Z,2.30
2018-02-16T19:52:34.678Z,2.40
2018-02-16T19:55:02.343Z,2.30
2018-02-16T19:57:30.093Z,2.30
2018-02-16T19:59:57.771Z,2.30
2018-02-16T20:02:25.576Z,2.30
2018-02-16T20:04:53.283Z,2.30
2018-02-16T20:07:21.042Z,2.20
2018-02-16T20:09:48.725Z,2.30
2018-02-16T20:12:16.584Z,2.30
2018-02-16T20:14:44.268Z,2.30
2018-02-16T20:17:12.074Z,2.40
2018-02-16T20:19:40.567Z,2.40
2018-02-16T20:22:09.080Z,2.40
2018-02-16T20:24:36.787Z,2.40
2018-02-16T20:27:04.571Z,2.40
2018-02-16T20:29:33.060Z,2.40
2018-02-16T20:32:01.652Z,2.40
2018-02-16T20:34:29.377Z,2.40
2018-02-16T20:36:57.128Z,2.40
2018-02-16T20:39:25.719Z,2.40
2018-02-16T20:41:53.404Z,2.40
2018-02-16T20:44:21.208Z,2.40
2018-02-16T20:46:48.898Z,2.40
2018-02-16T20:49:16.730Z,2.40
2018-02-16T20:51:44.665Z,2.40
2018-02-16T20:54:13.188Z,2.40
2018-02-16T20:56:41.241Z,2.40
2018-02-16T20:59:09.009Z,2.40
2018-02-16T21:01:36.952Z,2.40
2018-02-16T21:04:05.722Z,2.40
2018-02-16T21:06:34.753Z,2.40
2018-02-16T21:09:02.655Z,2.30
2018-02-16T21:11:30.343Z,2.30
2018-02-16T21:13:58.094Z,2.30
2018-02-16T21:16:25.948Z,2.30
2018-02-16T21:18:53.932Z,2.30
2018-02-16T21:21:21.730Z,2.20
2018-02-16T21:23:50.207Z,2.20
2018-02-16T21:26:17.971Z,2.20
2018-02-16T21:28:46.389Z,2.20
2018-02-16T21:31:14.249Z,2.10
2018-02-16T21:33:43.219Z,2.10
2018-02-16T21:36:10.892Z,2.10
2018-02-16T21:38:38.550Z,2.10
2018-02-16T21:41:06.248Z,2.10
2018-02-16T21:43:34.067Z,2.10
2018-02-16T21:46:01.829Z,2.00
2018-02-16T21:48:29.568Z,1.90
2018-02-16T21:50:57.298Z,1.90
2018-02-16T21:53:25.019Z,1.90
2018-02-16T21:55:52.671Z,1.90
2018-02-16T21:58:21.173Z,1.80
2018-02-16T22:00:48.884Z,1.80
2018-02-16T22:03:16.578Z,1.70
2018-02-16T22:05:44.236Z,1.70
2018-02-16T22:08:12.216Z,1.70
2018-02-16T22:10:40.588Z,1.80
2018-02-16T22:13:08.975Z,1.90
2018-02-16T22:15:36.648Z,1.90
2018-02-16T22:18:04.537Z,1.80
2018-02-16T22:20:32.564Z,1.80
2018-02-16T22:23:00.985Z,1.80
2018-02-16T22:25:28.645Z,1.70
2018-02-16T22:27:56.355Z,1.80
2018-02-16T22:30:24.868Z,1.70
2018-02-16T22:32:52.497Z,1.70
2018-02-16T22:35:21.186Z,1.60
2018-02-16T22:37:48.879Z,1.60
2018-02-16T22:40:16.585Z,1.60
2018-02-16T22:42:44.297Z,1.60
2018-02-16T22:45:11.936Z,1.60
2018-02-16T22:47:40.821Z,1.50
2018-02-16T22:50:09.270Z,1.50
2018-02-16T22:52:37.507Z,1.50
2018-02-16T22:55:05.259Z,1.50
2018-02-16T22:57:32.956Z,1.50
2018-02-16T23:00:00.715Z,1.50
2018-02-16T23:02:28.385Z,1.50
2018-02-16T23:04:56.150Z,1.60
2018-02-16T23:07:23.877Z,1.60
2018-02-16T23:09:51.560Z,1.70
2018-02-16T23:12:19.225Z,1.60
2018-02-16T23:14:46.883Z,1.60
2018-02-16T23:17:14.896Z,1.60
2018-02-16T23:19:42.741Z,1.70
2018-02-16T23:22:10.660Z,1.70
2018-02-16T23:24:38.575Z,1.70
2018-02-16T23:27:06.222Z,1.70
2018-02-16T23:29:34.022Z,1.70
2018-02-16T23:32:01.693Z,1.70
2018-02-16T23:34:29.321Z,1.70
2018-02-16T23:36:57.000Z,1.60
2018-02-16T23:39:24.657Z,1.60
2018-02-16T23:41:52.345Z,1.70
2018-02-16T23:44:20.707Z,1.60
2018-02-16T23:46:48.330Z,1.60
2018-02-16T23:49:16.386Z,1.60
2018-02-16T23:51:44.105Z,1.60
2018-02-16T23:54:11.745Z,1.60
2018-02-16T23:56:39.410Z,1.60
2018-02-16T23:59:07.042Z,1.60
